sensor_id;sensor_type;location;lat;lon;timestamp;P1;durP1;ratioP1;P2;durP2;ratioP2
35990;SDS011;22064;42.672;23.282;2022-10-04T00:03:07;5.70;;;2.70;;
35990;SDS011;22064;42.672;23.282;2022-10-04T00:05:35;6.82;;;2.90;;
35990;SDS011;22064;42.672;23.282;2022-10-04T00:08:17;2.95;;;2.42;;
35990;SDS011;22064;42.672;23.282;2022-10-04T00:11:02;5.25;;;2.63;;
35990;SDS011;22064;42.672;23.282;2022-10-04T00:13:31;6.50;;;2.88;;
35990;SDS011;22064;42.672;23.282;2022-10-04T00:15:59;3.80;;;2.30;;
35990;SDS011;22064;42.672;23.282;2022-10-04T00:18:44;6.40;;;2.70;;
35990;SDS011;22064;42.672;23.282;2022-10-04T00:21:10;4.63;;;2.25;;
35990;SDS011;22064;42.672;23.282;2022-10-04T00:28:46;3.35;;;2.35;;
35990;SDS011;22064;42.672;23.282;2022-10-04T00:33:42;4.38;;;2.40;;
35990;SDS011;22064;42.672;23.282;2022-10-04T00:36:30;2.65;;;2.30;;
35990;SDS011;22064;42.672;23.282;2022-10-04T00:46:45;5.70;;;2.40;;
35990;SDS011;22064;42.672;23.282;2022-10-04T00:49:13;2.33;;;2.13;;
35990;SDS011;22064;42.672;23.282;2022-10-04T00:51:45;3.78;;;3.10;;
35990;SDS011;22064;42.672;23.282;2022-10-04T00:57:10;3.50;;;2.28;;
35990;SDS011;22064;42.672;23.282;2022-10-04T00:59:43;5.05;;;2.00;;
35990;SDS011;22064;42.672;23.282;2022-10-04T01:04:56;5.70;;;2.47;;
35990;SDS011;22064;42.672;23.282;2022-10-04T01:07:36;4.85;;;2.40;;
35990;SDS011;22064;42.672;23.282;2022-10-04T01:18:38;2.60;;;2.10;;
35990;SDS011;22064;42.672;23.282;2022-10-04T01:21:06;5.63;;;2.22;;
35990;SDS011;22064;42.672;23.282;2022-10-04T01:28:58;4.63;;;2.35;;
35990;SDS011;22064;42.672;23.282;2022-10-04T01:31:30;2.72;;;2.10;;
35990;SDS011;22064;42.672;23.282;2022-10-04T01:34:01;4.05;;;2.05;;
35990;SDS011;22064;42.672;23.282;2022-10-04T01:36:29;4.70;;;2.17;;
35990;SDS011;22064;42.672;23.282;2022-10-04T01:38:56;5.07;;;2.47;;
35990;SDS011;22064;42.672;23.282;2022-10-04T01:44:09;2.78;;;1.85;;
35990;SDS011;22064;42.672;23.282;2022-10-04T01:46:44;2.45;;;2.25;;
35990;SDS011;22064;42.672;23.282;2022-10-04T01:49:12;2.92;;;2.35;;
35990;SDS011;22064;42.672;23.282;2022-10-04T01:51:46;5.05;;;2.47;;
35990;SDS011;22064;42.672;23.282;2022-10-04T01:54:22;5.20;;;2.78;;
35990;SDS011;22064;42.672;23.282;2022-10-04T01:57:03;4.10;;;1.90;;
35990;SDS011;22064;42.672;23.282;2022-10-04T02:05:06;3.95;;;1.83;;
35990;SDS011;22064;42.672;23.282;2022-10-04T02:07:35;2.40;;;2.15;;
35990;SDS011;22064;42.672;23.282;2022-10-04T02:10:04;3.33;;;2.45;;
35990;SDS011;22064;42.672;23.282;2022-10-04T02:12:34;3.28;;;2.00;;
35990;SDS011;22064;42.672;23.282;2022-10-04T02:15:02;3.70;;;2.00;;
35990;SDS011;22064;42.672;23.282;2022-10-04T02:17:32;2.17;;;1.98;;
35990;SDS011;22064;42.672;23.282;2022-10-04T02:20:02;2.75;;;2.28;;
35990;SDS011;22064;42.672;23.282;2022-10-04T02:22:45;1.92;;;1.73;;
35990;SDS011;22064;42.672;23.282;2022-10-04T02:25:20;3.55;;;2.00;;
35990;SDS011;22064;42.672;23.282;2022-10-04T02:27:52;3.10;;;2.30;;
35990;SDS011;22064;42.672;23.282;2022-10-04T02:30:18;2.58;;;1.95;;
35990;SDS011;22064;42.672;23.282;2022-10-04T02:32:43;3.92;;;2.15;;
35990;SDS011;22064;42.672;23.282;2022-10-04T02:35:31;3.85;;;2.20;;
35990;SDS011;22064;42.672;23.282;2022-10-04T02:40:39;3.60;;;2.22;;
35990;SDS011;22064;42.672;23.282;2022-10-04T02:43:55;6.70;;;2.40;;
35990;SDS011;22064;42.672;23.282;2022-10-04T02:46:07;3.60;;;3.00;;
35990;SDS011;22064;42.672;23.282;2022-10-04T02:48:39;3.20;;;2.33;;
35990;SDS011;22064;42.672;23.282;2022-10-04T02:51:14;6.13;;;2.67;;
35990;SDS011;22064;42.672;23.282;2022-10-04T02:53:49;5.57;;;2.70;;
35990;SDS011;22064;42.672;23.282;2022-10-04T02:56:31;3.50;;;2.58;;
35990;SDS011;22064;42.672;23.282;2022-10-04T02:59:04;3.00;;;2.70;;
35990;SDS011;22064;42.672;23.282;2022-10-04T03:04:38;6.15;;;2.70;;
35990;SDS011;22064;42.672;23.282;2022-10-04T03:07:05;3.85;;;2.50;;
35990;SDS011;22064;42.672;23.282;2022-10-04T03:09:33;10.35;;;2.78;;
35990;SDS011;22064;42.672;23.282;2022-10-04T03:12:00;9.48;;;3.10;;
35990;SDS011;22064;42.672;23.282;2022-10-04T03:14:28;8.90;;;2.78;;
35990;SDS011;22064;42.672;23.282;2022-10-04T03:16:57;2.45;;;2.25;;
35990;SDS011;22064;42.672;23.282;2022-10-04T03:19:25;4.28;;;2.60;;
35990;SDS011;22064;42.672;23.282;2022-10-04T03:21:55;4.10;;;2.38;;
35990;SDS011;22064;42.672;23.282;2022-10-04T03:24:27;5.05;;;2.55;;
35990;SDS011;22064;42.672;23.282;2022-10-04T03:26:56;3.58;;;2.58;;
35990;SDS011;22064;42.672;23.282;2022-10-04T03:29:26;6.65;;;2.67;;
35990;SDS011;22064;42.672;23.282;2022-10-04T03:31:56;3.15;;;2.50;;
35990;SDS011;22064;42.672;23.282;2022-10-04T03:34:22;4.93;;;2.90;;
35990;SDS011;22064;42.672;23.282;2022-10-04T03:36:51;3.47;;;2.15;;
35990;SDS011;22064;42.672;23.282;2022-10-04T03:41:51;3.08;;;2.55;;
35990;SDS011;22064;42.672;23.282;2022-10-04T03:44:17;2.38;;;2.15;;
35990;SDS011;22064;42.672;23.282;2022-10-04T03:46:45;4.15;;;2.78;;
35990;SDS011;22064;42.672;23.282;2022-10-04T03:49:17;2.85;;;2.40;;
35990;SDS011;22064;42.672;23.282;2022-10-04T03:51:53;3.05;;;2.50;;
35990;SDS011;22064;42.672;23.282;2022-10-04T03:54:20;4.47;;;2.58;;
35990;SDS011;22064;42.672;23.282;2022-10-04T03:56:49;6.55;;;2.80;;
35990;SDS011;22064;42.672;23.282;2022-10-04T03:59:18;4.60;;;2.60;;
35990;SDS011;22064;42.672;23.282;2022-10-04T04:04:33;5.03;;;2.70;;
35990;SDS011;22064;42.672;23.282;2022-10-04T04:07:18;4.28;;;2.53;;
35990;SDS011;22064;42.672;23.282;2022-10-04T04:09:50;4.88;;;3.08;;
35990;SDS011;22064;42.672;23.282;2022-10-04T04:12:25;5.85;;;2.80;;
35990;SDS011;22064;42.672;23.282;2022-10-04T04:15:02;4.05;;;2.75;;
35990;SDS011;22064;42.672;23.282;2022-10-04T04:17:33;6.93;;;2.72;;
35990;SDS011;22064;42.672;23.282;2022-10-04T04:20:00;4.72;;;3.22;;
35990;SDS011;22064;42.672;23.282;2022-10-04T04:22:28;5.78;;;2.70;;
35990;SDS011;22064;42.672;23.282;2022-10-04T04:24:59;5.50;;;3.10;;
35990;SDS011;22064;42.672;23.282;2022-10-04T04:27:27;4.82;;;2.70;;
35990;SDS011;22064;42.672;23.282;2022-10-04T04:29:58;5.68;;;3.40;;
35990;SDS011;22064;42.672;23.282;2022-10-04T04:32:32;3.13;;;2.70;;
35990;SDS011;22064;42.672;23.282;2022-10-04T04:35:05;4.72;;;2.63;;
35990;SDS011;22064;42.672;23.282;2022-10-04T04:37:44;4.72;;;2.70;;
35990;SDS011;22064;42.672;23.282;2022-10-04T04:40:26;5.88;;;2.90;;
35990;SDS011;22064;42.672;23.282;2022-10-04T04:42:52;7.60;;;3.03;;
35990;SDS011;22064;42.672;23.282;2022-10-04T04:45:27;6.13;;;3.22;;
35990;SDS011;22064;42.672;23.282;2022-10-04T04:47:55;3.38;;;2.90;;
35990;SDS011;22064;42.672;23.282;2022-10-04T04:53:04;6.45;;;3.28;;
35990;SDS011;22064;42.672;23.282;2022-10-04T04:55:32;7.20;;;3.40;;
35990;SDS011;22064;42.672;23.282;2022-10-04T04:58:13;3.97;;;3.00;;
35990;SDS011;22064;42.672;23.282;2022-10-04T05:00:47;5.72;;;3.33;;
35990;SDS011;22064;42.672;23.282;2022-10-04T05:03:23;7.72;;;3.40;;
35990;SDS011;22064;42.672;23.282;2022-10-04T05:05:50;5.05;;;2.97;;
35990;SDS011;22064;42.672;23.282;2022-10-04T05:08:23;5.60;;;3.33;;
35990;SDS011;22064;42.672;23.282;2022-10-04T05:18:58;4.60;;;3.40;;
35990;SDS011;22064;42.672;23.282;2022-10-04T05:21:26;6.80;;;3.25;;
35990;SDS011;22064;42.672;23.282;2022-10-04T05:23:54;7.82;;;3.47;;
35990;SDS011;22064;42.672;23.282;2022-10-04T05:26:26;7.80;;;3.50;;
35990;SDS011;22064;42.672;23.282;2022-10-04T05:28:58;5.30;;;3.40;;
35990;SDS011;22064;42.672;23.282;2022-10-04T05:31:37;6.97;;;3.53;;
35990;SDS011;22064;42.672;23.282;2022-10-04T05:34:14;4.43;;;3.53;;
35990;SDS011;22064;42.672;23.282;2022-10-04T05:39:49;7.22;;;3.75;;
35990;SDS011;22064;42.672;23.282;2022-10-04T05:42:37;4.53;;;3.17;;
35990;SDS011;22064;42.672;23.282;2022-10-04T05:47:45;7.00;;;3.50;;
35990;SDS011;22064;42.672;23.282;2022-10-04T05:50:18;4.68;;;3.30;;
35990;SDS011;22064;42.672;23.282;2022-10-04T05:53:04;5.55;;;3.53;;
35990;SDS011;22064;42.672;23.282;2022-10-04T05:55:52;7.32;;;3.28;;
35990;SDS011;22064;42.672;23.282;2022-10-04T06:01:45;6.55;;;3.30;;
35990;SDS011;22064;42.672;23.282;2022-10-04T06:06:39;6.65;;;2.92;;
35990;SDS011;22064;42.672;23.282;2022-10-04T06:09:34;5.63;;;3.10;;
35990;SDS011;22064;42.672;23.282;2022-10-04T06:22:56;3.30;;;3.00;;
35990;SDS011;22064;42.672;23.282;2022-10-04T06:33:19;3.33;;;2.58;;
35990;SDS011;22064;42.672;23.282;2022-10-04T06:47:32;3.78;;;2.80;;
35990;SDS011;22064;42.672;23.282;2022-10-04T06:58:45;4.78;;;2.47;;
35990;SDS011;22064;42.672;23.282;2022-10-04T07:01:27;4.18;;;3.05;;
35990;SDS011;22064;42.672;23.282;2022-10-04T07:06:31;4.40;;;2.85;;
35990;SDS011;22064;42.672;23.282;2022-10-04T07:09:04;3.67;;;2.67;;
35990;SDS011;22064;42.672;23.282;2022-10-04T07:11:43;3.67;;;3.00;;
35990;SDS011;22064;42.672;23.282;2022-10-04T07:14:23;5.20;;;2.88;;
35990;SDS011;22064;42.672;23.282;2022-10-04T07:17:02;4.88;;;2.75;;
35990;SDS011;22064;42.672;23.282;2022-10-04T07:19:35;7.13;;;2.95;;
35990;SDS011;22064;42.672;23.282;2022-10-04T07:24:48;2.97;;;2.50;;
35990;SDS011;22064;42.672;23.282;2022-10-04T07:27:16;2.60;;;2.40;;
35990;SDS011;22064;42.672;23.282;2022-10-04T07:29:52;2.80;;;2.50;;
35990;SDS011;22064;42.672;23.282;2022-10-04T07:32:31;4.72;;;2.63;;
35990;SDS011;22064;42.672;23.282;2022-10-04T07:37:35;3.25;;;2.70;;
35990;SDS011;22064;42.672;23.282;2022-10-04T07:40:31;2.88;;;2.67;;
35990;SDS011;22064;42.672;23.282;2022-10-04T07:43:05;3.08;;;2.72;;
35990;SDS011;22064;42.672;23.282;2022-10-04T07:45:40;3.75;;;2.85;;
35990;SDS011;22064;42.672;23.282;2022-10-04T07:48:11;4.15;;;2.60;;
35990;SDS011;22064;42.672;23.282;2022-10-04T07:51:18;5.15;;;2.92;;
35990;SDS011;22064;42.672;23.282;2022-10-04T07:54:04;4.13;;;2.80;;
35990;SDS011;22064;42.672;23.282;2022-10-04T07:57:00;5.35;;;2.63;;
35990;SDS011;22064;42.672;23.282;2022-10-04T08:16:34;2.33;;;2.13;;
35990;SDS011;22064;42.672;23.282;2022-10-04T08:22:16;2.55;;;2.28;;
35990;SDS011;22064;42.672;23.282;2022-10-04T08:43:34;2.95;;;2.33;;
35990;SDS011;22064;42.672;23.282;2022-10-04T09:14:16;3.03;;;2.70;;
35990;SDS011;22064;42.672;23.282;2022-10-04T09:16:50;4.32;;;2.47;;
35990;SDS011;22064;42.672;23.282;2022-10-04T09:22:15;3.00;;;2.50;;
35990;SDS011;22064;42.672;23.282;2022-10-04T09:45:59;3.00;;;2.30;;
35990;SDS011;22064;42.672;23.282;2022-10-04T10:08:54;3.60;;;2.72;;
35990;SDS011;22064;42.672;23.282;2022-10-04T10:11:44;2.90;;;2.35;;
35990;SDS011;22064;42.672;23.282;2022-10-04T10:36:57;2.95;;;2.65;;
35990;SDS011;22064;42.672;23.282;2022-10-04T10:39:35;2.85;;;2.60;;
35990;SDS011;22064;42.672;23.282;2022-10-04T10:47:43;2.70;;;2.50;;
35990;SDS011;22064;42.672;23.282;2022-10-04T10:56:18;4.47;;;3.70;;
35990;SDS011;22064;42.672;23.282;2022-10-04T11:27:08;3.60;;;2.58;;
35990;SDS011;22064;42.672;23.282;2022-10-04T11:49:48;2.95;;;2.65;;
35990;SDS011;22064;42.672;23.282;2022-10-04T11:57:53;5.85;;;3.35;;
35990;SDS011;22064;42.672;23.282;2022-10-04T12:00:20;3.05;;;2.72;;
35990;SDS011;22064;42.672;23.282;2022-10-04T12:05:48;4.63;;;2.70;;
35990;SDS011;22064;42.672;23.282;2022-10-04T12:11:02;4.45;;;2.80;;
35990;SDS011;22064;42.672;23.282;2022-10-04T12:33:05;3.70;;;3.40;;
35990;SDS011;22064;42.672;23.282;2022-10-04T12:41:15;5.20;;;2.90;;
35990;SDS011;22064;42.672;23.282;2022-10-04T12:49:07;7.00;;;3.45;;
35990;SDS011;22064;42.672;23.282;2022-10-04T13:00:13;4.78;;;2.80;;
35990;SDS011;22064;42.672;23.282;2022-10-04T13:34:43;6.00;;;3.10;;
35990;SDS011;22064;42.672;23.282;2022-10-04T13:50:37;5.57;;;3.83;;
35990;SDS011;22064;42.672;23.282;2022-10-04T14:01:23;5.70;;;3.42;;
35990;SDS011;22064;42.672;23.282;2022-10-04T14:09:57;7.45;;;4.25;;
35990;SDS011;22064;42.672;23.282;2022-10-04T14:21:12;5.35;;;4.05;;
35990;SDS011;22064;42.672;23.282;2022-10-04T14:29:41;5.82;;;3.78;;
35990;SDS011;22064;42.672;23.282;2022-10-04T14:51:58;8.38;;;4.25;;
35990;SDS011;22064;42.672;23.282;2022-10-04T15:10:37;7.38;;;4.35;;
35990;SDS011;22064;42.672;23.282;2022-10-04T15:13:24;5.07;;;4.07;;
35990;SDS011;22064;42.672;23.282;2022-10-04T15:21:03;10.13;;;4.85;;
35990;SDS011;22064;42.672;23.282;2022-10-04T15:47:36;6.35;;;4.45;;
35990;SDS011;22064;42.672;23.282;2022-10-04T15:50:27;7.60;;;4.80;;
35990;SDS011;22064;42.672;23.282;2022-10-04T16:03:53;9.73;;;4.82;;
35990;SDS011;22064;42.672;23.282;2022-10-04T16:22:33;8.88;;;5.68;;
35990;SDS011;22064;42.672;23.282;2022-10-04T16:30:22;10.93;;;5.28;;
35990;SDS011;22064;42.672;23.282;2022-10-04T16:37:53;9.68;;;4.88;;
35990;SDS011;22064;42.672;23.282;2022-10-04T16:40:34;8.20;;;4.85;;
35990;SDS011;22064;42.672;23.282;2022-10-04T16:45:44;15.20;;;5.28;;
35990;SDS011;22064;42.672;23.282;2022-10-04T16:51:15;9.45;;;5.28;;
35990;SDS011;22064;42.672;23.282;2022-10-04T17:04:48;8.88;;;5.10;;
35990;SDS011;22064;42.672;23.282;2022-10-04T17:07:26;10.43;;;5.40;;
35990;SDS011;22064;42.672;23.282;2022-10-04T17:12:47;9.68;;;5.25;;
35990;SDS011;22064;42.672;23.282;2022-10-04T17:15:24;8.35;;;5.15;;
35990;SDS011;22064;42.672;23.282;2022-10-04T17:21:11;7.75;;;4.82;;
35990;SDS011;22064;42.672;23.282;2022-10-04T17:23:56;13.77;;;5.32;;
35990;SDS011;22064;42.672;23.282;2022-10-04T17:40:32;9.65;;;5.70;;
35990;SDS011;22064;42.672;23.282;2022-10-04T17:48:38;12.63;;;5.80;;
35990;SDS011;22064;42.672;23.282;2022-10-04T17:51:36;10.80;;;5.80;;
35990;SDS011;22064;42.672;23.282;2022-10-04T17:54:24;10.50;;;5.47;;
35990;SDS011;22064;42.672;23.282;2022-10-04T17:57:14;10.18;;;5.70;;
35990;SDS011;22064;42.672;23.282;2022-10-04T17:59:41;10.23;;;5.82;;
35990;SDS011;22064;42.672;23.282;2022-10-04T18:04:46;7.25;;;4.97;;
35990;SDS011;22064;42.672;23.282;2022-10-04T18:07:21;10.05;;;5.45;;
35990;SDS011;22064;42.672;23.282;2022-10-04T18:09:51;10.05;;;6.10;;
35990;SDS011;22064;42.672;23.282;2022-10-04T18:12:25;10.90;;;5.88;;
35990;SDS011;22064;42.672;23.282;2022-10-04T18:18:16;7.85;;;5.05;;
35990;SDS011;22064;42.672;23.282;2022-10-04T18:23:14;9.85;;;5.65;;
35990;SDS011;22064;42.672;23.282;2022-10-04T18:25:42;11.57;;;5.85;;
35990;SDS011;22064;42.672;23.282;2022-10-04T18:33:13;13.68;;;6.53;;
35990;SDS011;22064;42.672;23.282;2022-10-04T18:36:01;11.68;;;5.63;;
35990;SDS011;22064;42.672;23.282;2022-10-04T18:38:30;10.63;;;5.95;;
35990;SDS011;22064;42.672;23.282;2022-10-04T18:41:17;15.73;;;6.20;;
35990;SDS011;22064;42.672;23.282;2022-10-04T18:43:49;11.98;;;5.75;;
35990;SDS011;22064;42.672;23.282;2022-10-04T18:46:17;11.52;;;6.20;;
35990;SDS011;22064;42.672;23.282;2022-10-04T18:51:28;10.20;;;5.60;;
35990;SDS011;22064;42.672;23.282;2022-10-04T19:05:25;10.90;;;5.57;;
35990;SDS011;22064;42.672;23.282;2022-10-04T19:08:04;9.15;;;5.85;;
35990;SDS011;22064;42.672;23.282;2022-10-04T19:27:19;9.82;;;5.57;;
35990;SDS011;22064;42.672;23.282;2022-10-04T19:30:12;11.63;;;6.10;;
35990;SDS011;22064;42.672;23.282;2022-10-04T19:40:27;13.80;;;5.90;;
35990;SDS011;22064;42.672;23.282;2022-10-04T19:43:00;15.48;;;7.30;;
35990;SDS011;22064;42.672;23.282;2022-10-04T19:45:33;15.20;;;7.90;;
35990;SDS011;22064;42.672;23.282;2022-10-04T19:48:27;16.40;;;8.00;;
35990;SDS011;22064;42.672;23.282;2022-10-04T19:51:01;10.93;;;6.00;;
35990;SDS011;22064;42.672;23.282;2022-10-04T19:53:42;10.82;;;6.43;;
35990;SDS011;22064;42.672;23.282;2022-10-04T19:56:19;11.95;;;6.38;;
35990;SDS011;22064;42.672;23.282;2022-10-04T19:59:05;8.85;;;5.60;;
35990;SDS011;22064;42.672;23.282;2022-10-04T20:01:35;9.90;;;5.50;;
35990;SDS011;22064;42.672;23.282;2022-10-04T20:04:03;9.27;;;5.72;;
35990;SDS011;22064;42.672;23.282;2022-10-04T20:06:56;10.60;;;5.78;;
35990;SDS011;22064;42.672;23.282;2022-10-04T20:11:49;9.35;;;5.18;;
35990;SDS011;22064;42.672;23.282;2022-10-04T20:34:54;13.82;;;6.60;;
35990;SDS011;22064;42.672;23.282;2022-10-04T20:37:23;11.68;;;5.72;;
35990;SDS011;22064;42.672;23.282;2022-10-04T20:45:41;16.10;;;6.78;;
35990;SDS011;22064;42.672;23.282;2022-10-04T20:48:11;11.52;;;6.03;;
35990;SDS011;22064;42.672;23.282;2022-10-04T20:50:42;15.40;;;6.30;;
35990;SDS011;22064;42.672;23.282;2022-10-04T20:53:23;11.65;;;6.28;;
35990;SDS011;22064;42.672;23.282;2022-10-04T20:55:51;12.40;;;6.50;;
35990;SDS011;22064;42.672;23.282;2022-10-04T20:58:41;11.30;;;6.55;;
35990;SDS011;22064;42.672;23.282;2022-10-04T21:06:58;12.40;;;6.32;;
35990;SDS011;22064;42.672;23.282;2022-10-04T21:09:25;9.98;;;5.95;;
35990;SDS011;22064;42.672;23.282;2022-10-04T21:11:53;14.52;;;6.28;;
35990;SDS011;22064;42.672;23.282;2022-10-04T21:14:21;12.38;;;6.15;;
35990;SDS011;22064;42.672;23.282;2022-10-04T21:16:51;14.52;;;5.85;;
35990;SDS011;22064;42.672;23.282;2022-10-04T21:23:05;10.90;;;6.20;;
35990;SDS011;22064;42.672;23.282;2022-10-04T21:24:53;11.80;;;5.97;;
35990;SDS011;22064;42.672;23.282;2022-10-04T21:29:53;10.55;;;5.40;;
35990;SDS011;22064;42.672;23.282;2022-10-04T21:32:19;11.05;;;5.60;;
35990;SDS011;22064;42.672;23.282;2022-10-04T21:34:45;9.18;;;5.35;;
35990;SDS011;22064;42.672;23.282;2022-10-04T21:37:11;9.27;;;5.40;;
35990;SDS011;22064;42.672;23.282;2022-10-04T21:39:36;9.85;;;5.10;;
35990;SDS011;22064;42.672;23.282;2022-10-04T21:42:02;7.65;;;5.05;;
35990;SDS011;22064;42.672;23.282;2022-10-04T21:44:28;9.38;;;5.13;;
35990;SDS011;22064;42.672;23.282;2022-10-04T21:46:53;8.73;;;5.55;;
35990;SDS011;22064;42.672;23.282;2022-10-04T21:49:19;8.65;;;5.35;;
35990;SDS011;22064;42.672;23.282;2022-10-04T21:51:44;11.18;;;5.40;;
35990;SDS011;22064;42.672;23.282;2022-10-04T21:54:10;8.20;;;5.20;;
35990;SDS011;22064;42.672;23.282;2022-10-04T21:56:36;9.52;;;5.25;;
35990;SDS011;22064;42.672;23.282;2022-10-04T21:59:01;10.02;;;5.03;;
35990;SDS011;22064;42.672;23.282;2022-10-04T22:01:27;10.13;;;5.63;;
35990;SDS011;22064;42.672;23.282;2022-10-04T22:03:52;12.80;;;5.55;;
35990;SDS011;22064;42.672;23.282;2022-10-04T22:06:18;9.73;;;5.43;;
35990;SDS011;22064;42.672;23.282;2022-10-04T22:08:43;10.90;;;5.63;;
35990;SDS011;22064;42.672;23.282;2022-10-04T22:11:09;9.48;;;5.35;;
35990;SDS011;22064;42.672;23.282;2022-10-04T22:13:35;9.05;;;4.97;;
35990;SDS011;22064;42.672;23.282;2022-10-04T22:16:01;10.07;;;5.22;;
35990;SDS011;22064;42.672;23.282;2022-10-04T22:18:28;10.52;;;5.43;;
35990;SDS011;22064;42.672;23.282;2022-10-04T22:20:53;10.18;;;5.43;;
35990;SDS011;22064;42.672;23.282;2022-10-04T22:23:20;11.55;;;5.03;;
35990;SDS011;22064;42.672;23.282;2022-10-04T22:25:47;9.73;;;5.35;;
35990;SDS011;22064;42.672;23.282;2022-10-04T22:28:23;9.43;;;5.43;;
35990;SDS011;22064;42.672;23.282;2022-10-04T22:30:53;9.93;;;5.10;;
35990;SDS011;22064;42.672;23.282;2022-10-04T22:35:56;10.70;;;5.45;;
35990;SDS011;22064;42.672;23.282;2022-10-04T22:38:24;8.68;;;5.38;;
35990;SDS011;22064;42.672;23.282;2022-10-04T22:40:49;9.73;;;5.47;;
35990;SDS011;22064;42.672;23.282;2022-10-04T22:43:14;10.80;;;5.30;;
35990;SDS011;22064;42.672;23.282;2022-10-04T22:45:40;10.32;;;5.05;;
35990;SDS011;22064;42.672;23.282;2022-10-04T22:48:10;9.40;;;5.22;;
35990;SDS011;22064;42.672;23.282;2022-10-04T22:50:39;11.85;;;5.40;;
35990;SDS011;22064;42.672;23.282;2022-10-04T22:53:13;9.38;;;5.35;;
35990;SDS011;22064;42.672;23.282;2022-10-04T22:55:43;8.60;;;5.40;;
35990;SDS011;22064;42.672;23.282;2022-10-04T22:58:12;9.60;;;5.20;;
35990;SDS011;22064;42.672;23.282;2022-10-04T23:00:38;9.60;;;5.93;;
35990;SDS011;22064;42.672;23.282;2022-10-04T23:03:13;10.63;;;5.82;;
35990;SDS011;22064;42.672;23.282;2022-10-04T23:05:48;11.40;;;5.70;;
35990;SDS011;22064;42.672;23.282;2022-10-04T23:08:14;11.95;;;6.82;;
35990;SDS011;22064;42.672;23.282;2022-10-04T23:10:42;11.00;;;6.38;;
35990;SDS011;22064;42.672;23.282;2022-10-04T23:13:08;12.40;;;6.00;;
35990;SDS011;22064;42.672;23.282;2022-10-04T23:15:34;11.95;;;6.07;;
35990;SDS011;22064;42.672;23.282;2022-10-04T23:17:59;10.82;;;6.60;;
35990;SDS011;22064;42.672;23.282;2022-10-04T23:20:26;8.45;;;5.82;;
35990;SDS011;22064;42.672;23.282;2022-10-04T23:22:53;12.77;;;6.75;;
35990;SDS011;22064;42.672;23.282;2022-10-04T23:25:20;10.93;;;5.93;;
35990;SDS011;22064;42.672;23.282;2022-10-04T23:27:57;11.25;;;5.93;;
35990;SDS011;22064;42.672;23.282;2022-10-04T23:30:27;14.25;;;6.20;;
35990;SDS011;22064;42.672;23.282;2022-10-04T23:32:55;10.60;;;6.00;;
35990;SDS011;22064;42.672;23.282;2022-10-04T23:35:25;7.60;;;5.38;;
35990;SDS011;22064;42.672;23.282;2022-10-04T23:37:55;11.25;;;6.07;;
35990;SDS011;22064;42.672;23.282;2022-10-04T23:40:21;10.90;;;5.97;;
35990;SDS011;22064;42.672;23.282;2022-10-04T23:42:49;10.88;;;6.22;;
35990;SDS011;22064;42.672;23.282;2022-10-04T23:45:21;11.30;;;6.20;;
35990;SDS011;22064;42.672;23.282;2022-10-04T23:47:50;9.27;;;5.60;;
35990;SDS011;22064;42.672;23.282;2022-10-04T23:50:24;12.13;;;5.55;;
35990;SDS011;22064;42.672;23.282;2022-10-04T23:52:54;9.52;;;5.57;;
35990;SDS011;22064;42.672;23.282;2022-10-04T23:55:36;10.48;;;5.55;;
35990;SDS011;22064;42.672;23.282;2022-10-04T23:58:08;12.68;;;6.07;;
